sensor_id;sensor_type;location;lat;lon;timestamp;P1;durP1;ratioP1;P2;durP2;ratioP2
35312;SDS011;21425;50.454;30.466;2024-02-14T00:01:05;646.38;;;75.80;;
35312;SDS011;21425;50.454;30.466;2024-02-14T00:03:34;363.52;;;45.05;;
35312;SDS011;21425;50.454;30.466;2024-02-14T00:06:00;323.73;;;42.42;;
35312;SDS011;21425;50.454;30.466;2024-02-14T00:08:25;380.95;;;49.28;;
35312;SDS011;21425;50.454;30.466;2024-02-14T00:10:51;310.30;;;45.30;;
35312;SDS011;21425;50.454;30.466;2024-02-14T00:13:17;463.73;;;56.92;;
35312;SDS011;21425;50.454;30.466;2024-02-14T00:15:43;516.72;;;60.28;;
35312;SDS011;21425;50.454;30.466;2024-02-14T00:18:11;311.73;;;41.05;;
35312;SDS011;21425;50.454;30.466;2024-02-14T00:20:37;439.33;;;53.10;;
35312;SDS011;21425;50.454;30.466;2024-02-14T00:23:04;454.63;;;57.53;;
35312;SDS011;21425;50.454;30.466;2024-02-14T00:25:30;398.65;;;47.90;;
35312;SDS011;21425;50.454;30.466;2024-02-14T00:27:57;605.50;;;71.88;;
35312;SDS011;21425;50.454;30.466;2024-02-14T00:30:26;595.78;;;68.50;;
35312;SDS011;21425;50.454;30.466;2024-02-14T00:32:52;382.77;;;49.28;;
35312;SDS011;21425;50.454;30.466;2024-02-14T00:35:18;266.63;;;37.65;;
35312;SDS011;21425;50.454;30.466;2024-02-14T00:37:44;358.83;;;41.95;;
35312;SDS011;21425;50.454;30.466;2024-02-14T00:40:10;340.35;;;44.22;;
35312;SDS011;21425;50.454;30.466;2024-02-14T00:42:36;380.35;;;47.30;;
35312;SDS011;21425;50.454;30.466;2024-02-14T00:45:02;473.60;;;49.90;;
35312;SDS011;21425;50.454;30.466;2024-02-14T00:47:28;667.75;;;81.15;;
35312;SDS011;21425;50.454;30.466;2024-02-14T00:49:54;333.70;;;42.42;;
35312;SDS011;21425;50.454;30.466;2024-02-14T00:52:20;458.83;;;55.67;;
35312;SDS011;21425;50.454;30.466;2024-02-14T00:54:46;443.20;;;52.85;;
35312;SDS011;21425;50.454;30.466;2024-02-14T00:57:12;770.08;;;93.90;;
35312;SDS011;21425;50.454;30.466;2024-02-14T00:59:38;597.63;;;67.97;;
35312;SDS011;21425;50.454;30.466;2024-02-14T01:02:04;368.02;;;50.47;;
35312;SDS011;21425;50.454;30.466;2024-02-14T01:04:30;117.05;;;25.10;;
35312;SDS011;21425;50.454;30.466;2024-02-14T01:06:56;448.20;;;55.72;;
35312;SDS011;21425;50.454;30.466;2024-02-14T01:09:23;381.92;;;47.08;;
35312;SDS011;21425;50.454;30.466;2024-02-14T01:11:49;70.13;;;20.02;;
35312;SDS011;21425;50.454;30.466;2024-02-14T01:14:15;91.43;;;20.23;;
35312;SDS011;21425;50.454;30.466;2024-02-14T01:16:45;205.23;;;29.85;;
35312;SDS011;21425;50.454;30.466;2024-02-14T01:19:11;507.38;;;60.78;;
35312;SDS011;21425;50.454;30.466;2024-02-14T01:21:37;477.23;;;52.65;;
35312;SDS011;21425;50.454;30.466;2024-02-14T01:24:03;567.72;;;60.65;;
35312;SDS011;21425;50.454;30.466;2024-02-14T01:26:30;607.15;;;69.18;;
35312;SDS011;21425;50.454;30.466;2024-02-14T01:28:56;340.10;;;42.35;;
35312;SDS011;21425;50.454;30.466;2024-02-14T01:31:22;190.50;;;31.52;;
35312;SDS011;21425;50.454;30.466;2024-02-14T01:33:48;375.83;;;46.85;;
35312;SDS011;21425;50.454;30.466;2024-02-14T01:36:13;344.50;;;44.22;;
35312;SDS011;21425;50.454;30.466;2024-02-14T01:38:39;556.67;;;70.85;;
35312;SDS011;21425;50.454;30.466;2024-02-14T01:41:05;605.80;;;70.85;;
35312;SDS011;21425;50.454;30.466;2024-02-14T01:43:31;436.23;;;58.72;;
35312;SDS011;21425;50.454;30.466;2024-02-14T01:46:04;378.63;;;47.70;;
35312;SDS011;21425;50.454;30.466;2024-02-14T01:48:30;658.53;;;77.05;;
35312;SDS011;21425;50.454;30.466;2024-02-14T01:50:57;287.90;;;42.53;;
35312;SDS011;21425;50.454;30.466;2024-02-14T01:53:24;445.90;;;52.92;;
35312;SDS011;21425;50.454;30.466;2024-02-14T01:55:50;451.88;;;52.80;;
35312;SDS011;21425;50.454;30.466;2024-02-14T01:58:17;418.30;;;49.58;;
35312;SDS011;21425;50.454;30.466;2024-02-14T02:00:44;533.67;;;62.85;;
35312;SDS011;21425;50.454;30.466;2024-02-14T02:03:11;372.73;;;43.50;;
35312;SDS011;21425;50.454;30.466;2024-02-14T02:05:37;541.50;;;60.83;;
35312;SDS011;21425;50.454;30.466;2024-02-14T02:08:03;423.02;;;47.80;;
35312;SDS011;21425;50.454;30.466;2024-02-14T02:10:32;293.95;;;36.95;;
35312;SDS011;21425;50.454;30.466;2024-02-14T02:12:58;768.20;;;89.70;;
35312;SDS011;21425;50.454;30.466;2024-02-14T02:15:25;624.58;;;71.20;;
35312;SDS011;21425;50.454;30.466;2024-02-14T02:17:53;1118.72;;;131.27;;
35312;SDS011;21425;50.454;30.466;2024-02-14T02:20:19;717.05;;;86.43;;
35312;SDS011;21425;50.454;30.466;2024-02-14T02:22:46;1005.70;;;114.32;;
35312;SDS011;21425;50.454;30.466;2024-02-14T02:25:15;654.88;;;73.45;;
35312;SDS011;21425;50.454;30.466;2024-02-14T02:27:41;610.92;;;67.63;;
35312;SDS011;21425;50.454;30.466;2024-02-14T02:30:07;862.08;;;98.00;;
35312;SDS011;21425;50.454;30.466;2024-02-14T02:32:35;382.65;;;50.17;;
35312;SDS011;21425;50.454;30.466;2024-02-14T02:35:01;412.60;;;45.97;;
35312;SDS011;21425;50.454;30.466;2024-02-14T02:37:28;422.65;;;44.78;;
35312;SDS011;21425;50.454;30.466;2024-02-14T02:39:54;776.60;;;90.28;;
35312;SDS011;21425;50.454;30.466;2024-02-14T02:42:21;860.55;;;97.90;;
35312;SDS011;21425;50.454;30.466;2024-02-14T02:44:46;433.27;;;49.70;;
35312;SDS011;21425;50.454;30.466;2024-02-14T02:47:13;792.70;;;94.72;;
35312;SDS011;21425;50.454;30.466;2024-02-14T02:49:41;924.08;;;113.10;;
35312;SDS011;21425;50.454;30.466;2024-02-14T02:52:09;901.72;;;97.90;;
35312;SDS011;21425;50.454;30.466;2024-02-14T02:54:35;738.83;;;93.05;;
35312;SDS011;21425;50.454;30.466;2024-02-14T02:57:01;632.90;;;74.10;;
35312;SDS011;21425;50.454;30.466;2024-02-14T02:59:30;946.75;;;106.25;;
35312;SDS011;21425;50.454;30.466;2024-02-14T03:01:57;990.63;;;116.05;;
35312;SDS011;21425;50.454;30.466;2024-02-14T03:04:24;495.55;;;53.15;;
35312;SDS011;21425;50.454;30.466;2024-02-14T03:06:49;783.13;;;89.10;;
35312;SDS011;21425;50.454;30.466;2024-02-14T03:09:15;544.40;;;59.70;;
35312;SDS011;21425;50.454;30.466;2024-02-14T03:11:45;659.42;;;81.15;;
35312;SDS011;21425;50.454;30.466;2024-02-14T03:14:12;870.95;;;102.85;;
35312;SDS011;21425;50.454;30.466;2024-02-14T03:16:38;454.30;;;46.47;;
35312;SDS011;21425;50.454;30.466;2024-02-14T03:19:04;788.10;;;87.30;;
35312;SDS011;21425;50.454;30.466;2024-02-14T03:21:31;638.97;;;73.53;;
35312;SDS011;21425;50.454;30.466;2024-02-14T03:24:01;442.83;;;45.72;;
35312;SDS011;21425;50.454;30.466;2024-02-14T03:26:29;470.70;;;51.55;;
35312;SDS011;21425;50.454;30.466;2024-02-14T03:28:58;390.48;;;46.83;;
35312;SDS011;21425;50.454;30.466;2024-02-14T03:31:24;278.90;;;32.78;;
35312;SDS011;21425;50.454;30.466;2024-02-14T03:33:51;773.33;;;86.15;;
35312;SDS011;21425;50.454;30.466;2024-02-14T03:36:18;695.20;;;72.63;;
35312;SDS011;21425;50.454;30.466;2024-02-14T03:38:44;406.02;;;45.00;;
35312;SDS011;21425;50.454;30.466;2024-02-14T03:41:11;1110.35;;;135.30;;
35312;SDS011;21425;50.454;30.466;2024-02-14T03:43:38;987.33;;;126.35;;
35312;SDS011;21425;50.454;30.466;2024-02-14T03:46:04;526.83;;;56.03;;
35312;SDS011;21425;50.454;30.466;2024-02-14T03:48:30;709.95;;;82.32;;
35312;SDS011;21425;50.454;30.466;2024-02-14T03:50:57;904.85;;;106.60;;
35312;SDS011;21425;50.454;30.466;2024-02-14T03:53:23;637.47;;;76.90;;
35312;SDS011;21425;50.454;30.466;2024-02-14T03:55:48;518.95;;;52.20;;
35312;SDS011;21425;50.454;30.466;2024-02-14T03:58:15;394.70;;;43.80;;
35312;SDS011;21425;50.454;30.466;2024-02-14T04:00:47;1002.70;;;119.85;;
35312;SDS011;21425;50.454;30.466;2024-02-14T04:03:13;1168.53;;;135.13;;
35312;SDS011;21425;50.454;30.466;2024-02-14T04:05:39;1015.88;;;122.13;;
35312;SDS011;21425;50.454;30.466;2024-02-14T04:08:06;407.52;;;42.08;;
35312;SDS011;21425;50.454;30.466;2024-02-14T04:10:34;1038.53;;;124.00;;
35312;SDS011;21425;50.454;30.466;2024-02-14T04:13:00;583.95;;;67.40;;
35312;SDS011;21425;50.454;30.466;2024-02-14T04:15:26;662.85;;;79.20;;
35312;SDS011;21425;50.454;30.466;2024-02-14T04:17:52;292.20;;;35.10;;
35312;SDS011;21425;50.454;30.466;2024-02-14T04:20:18;1053.32;;;122.70;;
35312;SDS011;21425;50.454;30.466;2024-02-14T04:22:44;510.63;;;57.03;;
35312;SDS011;21425;50.454;30.466;2024-02-14T04:25:10;264.98;;;33.42;;
35312;SDS011;21425;50.454;30.466;2024-02-14T04:27:37;603.95;;;69.20;;
35312;SDS011;21425;50.454;30.466;2024-02-14T04:30:03;743.35;;;92.22;;
35312;SDS011;21425;50.454;30.466;2024-02-14T04:32:29;502.58;;;57.92;;
35312;SDS011;21425;50.454;30.466;2024-02-14T04:34:55;362.60;;;42.72;;
35312;SDS011;21425;50.454;30.466;2024-02-14T04:37:21;408.88;;;43.53;;
35312;SDS011;21425;50.454;30.466;2024-02-14T04:39:47;830.42;;;102.97;;
35312;SDS011;21425;50.454;30.466;2024-02-14T04:42:13;548.47;;;62.25;;
35312;SDS011;21425;50.454;30.466;2024-02-14T04:44:38;1020.83;;;109.47;;
35312;SDS011;21425;50.454;30.466;2024-02-14T04:47:04;694.15;;;76.07;;
35312;SDS011;21425;50.454;30.466;2024-02-14T04:49:30;1034.30;;;128.27;;
35312;SDS011;21425;50.454;30.466;2024-02-14T04:51:56;702.65;;;80.95;;
35312;SDS011;21425;50.454;30.466;2024-02-14T04:54:22;335.55;;;46.22;;
35312;SDS011;21425;50.454;30.466;2024-02-14T04:56:50;146.77;;;20.73;;
35312;SDS011;21425;50.454;30.466;2024-02-14T04:59:16;327.00;;;35.33;;
35312;SDS011;21425;50.454;30.466;2024-02-14T05:01:41;295.75;;;31.13;;
35312;SDS011;21425;50.454;30.466;2024-02-14T05:04:08;208.95;;;30.13;;
35312;SDS011;21425;50.454;30.466;2024-02-14T05:06:33;276.33;;;39.17;;
35312;SDS011;21425;50.454;30.466;2024-02-14T05:08:59;186.30;;;27.25;;
35312;SDS011;21425;50.454;30.466;2024-02-14T05:11:26;115.85;;;23.38;;
35312;SDS011;21425;50.454;30.466;2024-02-14T05:13:52;57.28;;;16.02;;
35312;SDS011;21425;50.454;30.466;2024-02-14T05:16:18;464.23;;;49.78;;
35312;SDS011;21425;50.454;30.466;2024-02-14T05:18:44;426.20;;;47.72;;
35312;SDS011;21425;50.454;30.466;2024-02-14T05:21:10;244.75;;;31.70;;
35312;SDS011;21425;50.454;30.466;2024-02-14T05:23:36;132.40;;;20.30;;
35312;SDS011;21425;50.454;30.466;2024-02-14T05:26:03;373.77;;;47.10;;
35312;SDS011;21425;50.454;30.466;2024-02-14T05:28:29;608.35;;;65.07;;
35312;SDS011;21425;50.454;30.466;2024-02-14T05:30:56;63.90;;;18.10;;
35312;SDS011;21425;50.454;30.466;2024-02-14T05:33:22;602.78;;;66.60;;
35312;SDS011;21425;50.454;30.466;2024-02-14T05:35:48;67.43;;;16.58;;
35312;SDS011;21425;50.454;30.466;2024-02-14T05:38:15;93.20;;;21.17;;
35312;SDS011;21425;50.454;30.466;2024-02-14T05:40:44;162.23;;;28.00;;
35312;SDS011;21425;50.454;30.466;2024-02-14T05:43:10;362.27;;;41.13;;
35312;SDS011;21425;50.454;30.466;2024-02-14T05:45:36;113.05;;;17.63;;
35312;SDS011;21425;50.454;30.466;2024-02-14T05:48:02;68.05;;;17.70;;
35312;SDS011;21425;50.454;30.466;2024-02-14T05:50:28;76.47;;;20.85;;
35312;SDS011;21425;50.454;30.466;2024-02-14T05:52:54;194.57;;;29.20;;
35312;SDS011;21425;50.454;30.466;2024-02-14T05:55:22;301.55;;;43.03;;
35312;SDS011;21425;50.454;30.466;2024-02-14T05:57:49;108.60;;;24.17;;
35312;SDS011;21425;50.454;30.466;2024-02-14T06:00:17;191.98;;;28.80;;
35312;SDS011;21425;50.454;30.466;2024-02-14T06:02:44;275.70;;;32.63;;
35312;SDS011;21425;50.454;30.466;2024-02-14T06:05:10;165.98;;;22.65;;
35312;SDS011;21425;50.454;30.466;2024-02-14T06:07:39;122.63;;;27.48;;
35312;SDS011;21425;50.454;30.466;2024-02-14T06:10:05;299.63;;;34.20;;
35312;SDS011;21425;50.454;30.466;2024-02-14T06:12:32;565.83;;;62.00;;
35312;SDS011;21425;50.454;30.466;2024-02-14T06:14:58;642.30;;;76.25;;
35312;SDS011;21425;50.454;30.466;2024-02-14T06:17:24;280.00;;;33.85;;
35312;SDS011;21425;50.454;30.466;2024-02-14T06:19:51;151.32;;;21.83;;
35312;SDS011;21425;50.454;30.466;2024-02-14T06:22:17;108.97;;;23.27;;
35312;SDS011;21425;50.454;30.466;2024-02-14T06:24:43;530.92;;;52.80;;
35312;SDS011;21425;50.454;30.466;2024-02-14T06:27:09;472.48;;;52.45;;
35312;SDS011;21425;50.454;30.466;2024-02-14T06:29:35;82.53;;;19.33;;
35312;SDS011;21425;50.454;30.466;2024-02-14T06:32:01;204.75;;;27.92;;
35312;SDS011;21425;50.454;30.466;2024-02-14T06:34:27;57.20;;;14.63;;
35312;SDS011;21425;50.454;30.466;2024-02-14T06:36:54;75.28;;;17.67;;
35312;SDS011;21425;50.454;30.466;2024-02-14T06:39:19;468.83;;;54.15;;
35312;SDS011;21425;50.454;30.466;2024-02-14T06:41:46;65.50;;;18.38;;
35312;SDS011;21425;50.454;30.466;2024-02-14T06:44:13;109.22;;;18.23;;
35312;SDS011;21425;50.454;30.466;2024-02-14T06:46:39;91.63;;;18.17;;
35312;SDS011;21425;50.454;30.466;2024-02-14T06:49:06;98.18;;;18.33;;
35312;SDS011;21425;50.454;30.466;2024-02-14T06:51:32;280.40;;;33.20;;
35312;SDS011;21425;50.454;30.466;2024-02-14T06:53:58;490.40;;;48.60;;
35312;SDS011;21425;50.454;30.466;2024-02-14T06:56:24;269.10;;;33.30;;
35312;SDS011;21425;50.454;30.466;2024-02-14T06:58:50;201.35;;;23.42;;
35312;SDS011;21425;50.454;30.466;2024-02-14T07:01:24;119.53;;;20.95;;
35312;SDS011;21425;50.454;30.466;2024-02-14T07:03:50;382.83;;;41.45;;
35312;SDS011;21425;50.454;30.466;2024-02-14T07:06:16;42.88;;;13.27;;
35312;SDS011;21425;50.454;30.466;2024-02-14T07:08:43;699.72;;;82.50;;
35312;SDS011;21425;50.454;30.466;2024-02-14T07:11:09;60.30;;;16.75;;
35312;SDS011;21425;50.454;30.466;2024-02-14T07:13:35;534.00;;;56.65;;
35312;SDS011;21425;50.454;30.466;2024-02-14T07:16:01;156.95;;;23.73;;
35312;SDS011;21425;50.454;30.466;2024-02-14T07:18:27;192.35;;;22.08;;
35312;SDS011;21425;50.454;30.466;2024-02-14T07:20:53;469.95;;;55.08;;
35312;SDS011;21425;50.454;30.466;2024-02-14T07:23:19;48.10;;;15.18;;
35312;SDS011;21425;50.454;30.466;2024-02-14T07:25:46;106.80;;;15.32;;
35312;SDS011;21425;50.454;30.466;2024-02-14T07:28:12;38.63;;;13.20;;
35312;SDS011;21425;50.454;30.466;2024-02-14T07:30:38;84.00;;;15.10;;
35312;SDS011;21425;50.454;30.466;2024-02-14T07:33:04;44.70;;;13.32;;
35312;SDS011;21425;50.454;30.466;2024-02-14T07:35:30;31.67;;;11.60;;
35312;SDS011;21425;50.454;30.466;2024-02-14T07:37:56;99.85;;;15.95;;
35312;SDS011;21425;50.454;30.466;2024-02-14T07:40:22;35.80;;;12.95;;
35312;SDS011;21425;50.454;30.466;2024-02-14T07:42:48;40.58;;;15.85;;
35312;SDS011;21425;50.454;30.466;2024-02-14T07:45:14;117.00;;;19.67;;
35312;SDS011;21425;50.454;30.466;2024-02-14T07:47:40;36.08;;;12.38;;
35312;SDS011;21425;50.454;30.466;2024-02-14T07:50:06;37.45;;;12.73;;
35312;SDS011;21425;50.454;30.466;2024-02-14T07:52:32;35.35;;;12.02;;
35312;SDS011;21425;50.454;30.466;2024-02-14T07:54:59;44.35;;;13.15;;
35312;SDS011;21425;50.454;30.466;2024-02-14T07:57:25;236.57;;;25.23;;
35312;SDS011;21425;50.454;30.466;2024-02-14T07:59:52;89.18;;;17.67;;
35312;SDS011;21425;50.454;30.466;2024-02-14T08:02:18;35.75;;;11.88;;
35312;SDS011;21425;50.454;30.466;2024-02-14T08:04:44;125.00;;;20.30;;
35312;SDS011;21425;50.454;30.466;2024-02-14T08:07:10;36.08;;;12.23;;
35312;SDS011;21425;50.454;30.466;2024-02-14T08:09:36;45.25;;;13.40;;
35312;SDS011;21425;50.454;30.466;2024-02-14T08:12:04;226.13;;;27.63;;
35312;SDS011;21425;50.454;30.466;2024-02-14T08:14:30;61.85;;;15.32;;
35312;SDS011;21425;50.454;30.466;2024-02-14T08:16:56;44.17;;;11.77;;
35312;SDS011;21425;50.454;30.466;2024-02-14T08:19:22;73.95;;;15.68;;
35312;SDS011;21425;50.454;30.466;2024-02-14T08:21:48;35.78;;;12.77;;
35312;SDS011;21425;50.454;30.466;2024-02-14T08:24:14;32.05;;;12.43;;
35312;SDS011;21425;50.454;30.466;2024-02-14T08:26:40;31.90;;;13.02;;
35312;SDS011;21425;50.454;30.466;2024-02-14T08:29:07;39.08;;;12.10;;
35312;SDS011;21425;50.454;30.466;2024-02-14T08:31:34;34.67;;;13.38;;
35312;SDS011;21425;50.454;30.466;2024-02-14T08:34:02;154.98;;;20.08;;
35312;SDS011;21425;50.454;30.466;2024-02-14T08:36:27;26.27;;;11.30;;
35312;SDS011;21425;50.454;30.466;2024-02-14T08:38:53;28.42;;;9.30;;
35312;SDS011;21425;50.454;30.466;2024-02-14T08:41:19;27.52;;;10.77;;
35312;SDS011;21425;50.454;30.466;2024-02-14T08:43:45;29.23;;;9.07;;
35312;SDS011;21425;50.454;30.466;2024-02-14T08:46:11;30.63;;;9.93;;
35312;SDS011;21425;50.454;30.466;2024-02-14T08:48:37;28.15;;;9.45;;
35312;SDS011;21425;50.454;30.466;2024-02-14T08:51:12;25.33;;;9.60;;
35312;SDS011;21425;50.454;30.466;2024-02-14T08:53:38;21.02;;;8.82;;
35312;SDS011;21425;50.454;30.466;2024-02-14T08:56:04;24.48;;;9.13;;
35312;SDS011;21425;50.454;30.466;2024-02-14T08:58:30;26.35;;;9.48;;
35312;SDS011;21425;50.454;30.466;2024-02-14T09:00:56;28.42;;;9.73;;
35312;SDS011;21425;50.454;30.466;2024-02-14T09:03:22;21.35;;;9.55;;
35312;SDS011;21425;50.454;30.466;2024-02-14T09:05:48;22.67;;;8.55;;
35312;SDS011;21425;50.454;30.466;2024-02-14T09:08:15;26.20;;;10.68;;
35312;SDS011;21425;50.454;30.466;2024-02-14T09:10:41;24.08;;;11.35;;
35312;SDS011;21425;50.454;30.466;2024-02-14T09:13:06;28.75;;;11.00;;
35312;SDS011;21425;50.454;30.466;2024-02-14T09:15:32;19.95;;;8.25;;
35312;SDS011;21425;50.454;30.466;2024-02-14T09:17:59;30.23;;;10.30;;
35312;SDS011;21425;50.454;30.466;2024-02-14T09:20:25;22.40;;;9.25;;
35312;SDS011;21425;50.454;30.466;2024-02-14T09:22:51;21.88;;;10.00;;
35312;SDS011;21425;50.454;30.466;2024-02-14T09:25:16;21.48;;;9.10;;
35312;SDS011;21425;50.454;30.466;2024-02-14T09:27:42;11.88;;;5.93;;
35312;SDS011;21425;50.454;30.466;2024-02-14T09:30:09;12.70;;;6.22;;
35312;SDS011;21425;50.454;30.466;2024-02-14T09:32:35;18.60;;;7.10;;
35312;SDS011;21425;50.454;30.466;2024-02-14T09:35:01;14.48;;;6.57;;
35312;SDS011;21425;50.454;30.466;2024-02-14T09:37:31;17.98;;;7.28;;
35312;SDS011;21425;50.454;30.466;2024-02-14T09:39:57;15.95;;;7.40;;
35312;SDS011;21425;50.454;30.466;2024-02-14T09:42:28;18.70;;;5.82;;
35312;SDS011;21425;50.454;30.466;2024-02-14T09:45:06;22.58;;;7.38;;
35312;SDS011;21425;50.454;30.466;2024-02-14T09:47:32;18.85;;;7.95;;
35312;SDS011;21425;50.454;30.466;2024-02-14T09:49:59;15.02;;;5.72;;
35312;SDS011;21425;50.454;30.466;2024-02-14T09:52:28;16.67;;;6.03;;
35312;SDS011;21425;50.454;30.466;2024-02-14T09:54:54;10.45;;;5.03;;
35312;SDS011;21425;50.454;30.466;2024-02-14T09:57:20;14.15;;;6.38;;
35312;SDS011;21425;50.454;30.466;2024-02-14T09:59:46;13.50;;;6.15;;
35312;SDS011;21425;50.454;30.466;2024-02-14T10:02:12;17.98;;;6.20;;
35312;SDS011;21425;50.454;30.466;2024-02-14T10:04:39;10.65;;;4.28;;
35312;SDS011;21425;50.454;30.466;2024-02-14T10:07:05;10.60;;;3.10;;
35312;SDS011;21425;50.454;30.466;2024-02-14T10:09:31;8.73;;;4.35;;
35312;SDS011;21425;50.454;30.466;2024-02-14T10:12:05;18.58;;;4.43;;
35312;SDS011;21425;50.454;30.466;2024-02-14T10:14:34;8.85;;;3.50;;
35312;SDS011;21425;50.454;30.466;2024-02-14T10:17:01;10.95;;;3.78;;
35312;SDS011;21425;50.454;30.466;2024-02-14T10:19:27;14.10;;;4.85;;
35312;SDS011;21425;50.454;30.466;2024-02-14T10:21:59;11.05;;;4.47;;
35312;SDS011;21425;50.454;30.466;2024-02-14T10:26:53;11.10;;;3.88;;
35312;SDS011;21425;50.454;30.466;2024-02-14T10:29:19;12.80;;;4.25;;
35312;SDS011;21425;50.454;30.466;2024-02-14T10:31:48;13.57;;;3.67;;
35312;SDS011;21425;50.454;30.466;2024-02-14T10:34:15;14.45;;;4.70;;
35312;SDS011;21425;50.454;30.466;2024-02-14T10:36:44;13.63;;;4.72;;
35312;SDS011;21425;50.454;30.466;2024-02-14T10:39:11;8.05;;;3.92;;
35312;SDS011;21425;50.454;30.466;2024-02-14T10:41:37;11.77;;;4.32;;
35312;SDS011;21425;50.454;30.466;2024-02-14T10:44:03;14.65;;;5.50;;
35312;SDS011;21425;50.454;30.466;2024-02-14T10:46:31;13.90;;;5.03;;
35312;SDS011;21425;50.454;30.466;2024-02-14T10:49:01;12.40;;;4.05;;
35312;SDS011;21425;50.454;30.466;2024-02-14T10:51:30;10.43;;;4.40;;
35312;SDS011;21425;50.454;30.466;2024-02-14T10:53:56;12.05;;;4.50;;
35312;SDS011;21425;50.454;30.466;2024-02-14T10:56:29;10.32;;;3.85;;
35312;SDS011;21425;50.454;30.466;2024-02-14T10:58:56;8.80;;;3.40;;
35312;SDS011;21425;50.454;30.466;2024-02-14T11:01:24;13.88;;;3.97;;
35312;SDS011;21425;50.454;30.466;2024-02-14T11:03:52;14.77;;;4.22;;
35312;SDS011;21425;50.454;30.466;2024-02-14T11:06:17;10.52;;;3.90;;
35312;SDS011;21425;50.454;30.466;2024-02-14T11:09:02;18.25;;;3.92;;
35312;SDS011;21425;50.454;30.466;2024-02-14T11:11:33;13.15;;;4.15;;
35312;SDS011;21425;50.454;30.466;2024-02-14T11:13:59;13.75;;;5.00;;
35312;SDS011;21425;50.454;30.466;2024-02-14T11:16:26;10.57;;;5.00;;
35312;SDS011;21425;50.454;30.466;2024-02-14T11:18:53;6.22;;;3.28;;
35312;SDS011;21425;50.454;30.466;2024-02-14T11:21:34;11.43;;;4.35;;
35312;SDS011;21425;50.454;30.466;2024-02-14T11:24:05;9.98;;;4.72;;
35312;SDS011;21425;50.454;30.466;2024-02-14T11:26:39;8.55;;;3.35;;
35312;SDS011;21425;50.454;30.466;2024-02-14T11:29:15;10.90;;;4.32;;
35312;SDS011;21425;50.454;30.466;2024-02-14T11:31:41;9.93;;;4.57;;
35312;SDS011;21425;50.454;30.466;2024-02-14T11:34:08;11.10;;;3.30;;
35312;SDS011;21425;50.454;30.466;2024-02-14T11:36:35;8.68;;;3.42;;
35312;SDS011;21425;50.454;30.466;2024-02-14T11:39:04;9.88;;;4.13;;
35312;SDS011;21425;50.454;30.466;2024-02-14T11:41:32;6.45;;;3.75;;
35312;SDS011;21425;50.454;30.466;2024-02-14T11:44:00;10.10;;;4.20;;
35312;SDS011;21425;50.454;30.466;2024-02-14T11:46:27;11.27;;;3.97;;
35312;SDS011;21425;50.454;30.466;2024-02-14T11:48:55;9.73;;;3.83;;
35312;SDS011;21425;50.454;30.466;2024-02-14T11:51:22;11.45;;;4.20;;
35312;SDS011;21425;50.454;30.466;2024-02-14T11:53:48;10.85;;;4.97;;
35312;SDS011;21425;50.454;30.466;2024-02-14T11:56:14;11.70;;;5.40;;
35312;SDS011;21425;50.454;30.466;2024-02-14T11:58:41;9.82;;;4.82;;
35312;SDS011;21425;50.454;30.466;2024-02-14T12:01:07;11.68;;;5.25;;
35312;SDS011;21425;50.454;30.466;2024-02-14T12:03:34;9.63;;;4.28;;
35312;SDS011;21425;50.454;30.466;2024-02-14T12:06:01;11.88;;;6.03;;
35312;SDS011;21425;50.454;30.466;2024-02-14T12:08:28;13.30;;;6.30;;
35312;SDS011;21425;50.454;30.466;2024-02-14T12:10:54;13.30;;;5.20;;
35312;SDS011;21425;50.454;30.466;2024-02-14T12:13:20;17.45;;;6.22;;
35312;SDS011;21425;50.454;30.466;2024-02-14T12:15:47;14.80;;;5.72;;
35312;SDS011;21425;50.454;30.466;2024-02-14T12:18:16;11.73;;;5.72;;
35312;SDS011;21425;50.454;30.466;2024-02-14T12:20:43;11.35;;;4.68;;
35312;SDS011;21425;50.454;30.466;2024-02-14T12:23:16;11.80;;;5.50;;
35312;SDS011;21425;50.454;30.466;2024-02-14T12:25:43;11.57;;;5.78;;
35312;SDS011;21425;50.454;30.466;2024-02-14T12:28:18;15.38;;;5.70;;
35312;SDS011;21425;50.454;30.466;2024-02-14T12:33:12;10.00;;;5.28;;
35312;SDS011;21425;50.454;30.466;2024-02-14T12:35:42;14.80;;;5.95;;
35312;SDS011;21425;50.454;30.466;2024-02-14T12:38:08;10.13;;;5.03;;
35312;SDS011;21425;50.454;30.466;2024-02-14T12:40:35;13.93;;;5.45;;
35312;SDS011;21425;50.454;30.466;2024-02-14T12:43:01;12.65;;;5.30;;
35312;SDS011;21425;50.454;30.466;2024-02-14T12:45:27;13.80;;;5.90;;
35312;SDS011;21425;50.454;30.466;2024-02-14T12:47:53;15.20;;;6.38;;
35312;SDS011;21425;50.454;30.466;2024-02-14T12:50:19;13.55;;;5.30;;
35312;SDS011;21425;50.454;30.466;2024-02-14T12:52:45;20.52;;;6.57;;
35312;SDS011;21425;50.454;30.466;2024-02-14T12:55:11;14.15;;;5.30;;
35312;SDS011;21425;50.454;30.466;2024-02-14T12:57:38;23.88;;;6.55;;
35312;SDS011;21425;50.454;30.466;2024-02-14T13:00:05;17.40;;;6.45;;
35312;SDS011;21425;50.454;30.466;2024-02-14T13:02:37;17.08;;;6.15;;
35312;SDS011;21425;50.454;30.466;2024-02-14T13:05:03;13.38;;;5.60;;
35312;SDS011;21425;50.454;30.466;2024-02-14T13:07:30;13.38;;;6.13;;
35312;SDS011;21425;50.454;30.466;2024-02-14T13:09:56;14.93;;;6.93;;
35312;SDS011;21425;50.454;30.466;2024-02-14T13:12:22;10.00;;;5.20;;
35312;SDS011;21425;50.454;30.466;2024-02-14T13:14:48;10.90;;;5.45;;
35312;SDS011;21425;50.454;30.466;2024-02-14T13:17:13;10.77;;;4.70;;
35312;SDS011;21425;50.454;30.466;2024-02-14T13:19:39;10.95;;;4.88;;
35312;SDS011;21425;50.454;30.466;2024-02-14T13:22:07;7.60;;;3.42;;
35312;SDS011;21425;50.454;30.466;2024-02-14T13:24:35;12.15;;;5.22;;
35312;SDS011;21425;50.454;30.466;2024-02-14T13:27:01;15.63;;;6.47;;
35312;SDS011;21425;50.454;30.466;2024-02-14T13:29:27;13.73;;;6.43;;
35312;SDS011;21425;50.454;30.466;2024-02-14T13:31:53;13.90;;;5.50;;
35312;SDS011;21425;50.454;30.466;2024-02-14T13:34:19;14.30;;;5.75;;
35312;SDS011;21425;50.454;30.466;2024-02-14T13:36:45;16.42;;;5.25;;
35312;SDS011;21425;50.454;30.466;2024-02-14T13:39:15;28.00;;;10.27;;
35312;SDS011;21425;50.454;30.466;2024-02-14T13:41:41;15.68;;;7.55;;
35312;SDS011;21425;50.454;30.466;2024-02-14T13:44:09;10.38;;;4.50;;
35312;SDS011;21425;50.454;30.466;2024-02-14T13:46:38;13.35;;;5.65;;
35312;SDS011;21425;50.454;30.466;2024-02-14T13:49:10;22.02;;;7.03;;
35312;SDS011;21425;50.454;30.466;2024-02-14T13:51:36;19.45;;;6.85;;
35312;SDS011;21425;50.454;30.466;2024-02-14T13:54:02;12.40;;;5.32;;
35312;SDS011;21425;50.454;30.466;2024-02-14T13:56:29;14.43;;;5.68;;
35312;SDS011;21425;50.454;30.466;2024-02-14T13:58:55;12.45;;;5.57;;
35312;SDS011;21425;50.454;30.466;2024-02-14T14:01:21;15.02;;;5.63;;
35312;SDS011;21425;50.454;30.466;2024-02-14T14:03:47;14.70;;;7.18;;
35312;SDS011;21425;50.454;30.466;2024-02-14T14:06:15;15.13;;;7.57;;
35312;SDS011;21425;50.454;30.466;2024-02-14T14:08:41;23.20;;;6.65;;